Main page
METAR-TAF:

METAR-TAF

Airports :

Pacific Missile Range Facility

Kekaha, Hawaii, United States

latitude: 22-02-11N, longitude: 159-47-11W, elevation: 4 m

Current weather observation

The report was made 52 minutes ago, at 20:56 UTC
Wind 5 kt from the West/Northwest
Temperature 28°C
Humidity 62%
Pressure 1018 hPa
Visibility: 16.1 km
Clear sky

METAR: PHBK 012056Z AUTO 29005KT 10SM CLR 28/20 A3006 RMK AO2 SLP182 T02780200 50000

Time: 11:48 (21:48 UTC)


TAF: missing

Weather observations and forecasts of more than 4000 airports (METAR and TAF reports).

The available stations are represented by yellow and red dots on the map.

Hover mouse over dot to see the name of the station.

Then click to see weather observations and forecasts.

To change the map : click on the green buttons with a black cross to zoom in, on the green button with a dash to zoom out, or on the green arrows for adjacent maps.


METAR-TAF: